sensor_id;sensor_type;location;lat;lon;timestamp;P1;durP1;ratioP1;P2;durP2;ratioP2
7440;SDS011;29616;51.950;8.572;2023-04-16T00:09:11;939.45;;;424.50;;
7440;SDS011;29616;51.950;8.572;2023-04-16T00:11:42;1077.57;;;483.35;;
7440;SDS011;29616;51.950;8.572;2023-04-16T00:14:10;1209.60;;;518.13;;
7440;SDS011;29616;51.950;8.572;2023-04-16T00:16:39;1234.78;;;521.47;;
7440;SDS011;29616;51.950;8.572;2023-04-16T00:19:09;1169.32;;;485.63;;
7440;SDS011;29616;51.950;8.572;2023-04-16T00:21:38;1214.47;;;539.65;;
7440;SDS011;29616;51.950;8.572;2023-04-16T00:24:09;1205.30;;;519.05;;
7440;SDS011;29616;51.950;8.572;2023-04-16T00:26:38;1193.28;;;519.30;;
7440;SDS011;29616;51.950;8.572;2023-04-16T00:29:10;1207.53;;;557.90;;
7440;SDS011;29616;51.950;8.572;2023-04-16T00:31:40;1069.10;;;469.83;;
7440;SDS011;29616;51.950;8.572;2023-04-16T00:34:08;1084.38;;;458.23;;
7440;SDS011;29616;51.950;8.572;2023-04-16T00:36:37;1068.30;;;448.58;;
7440;SDS011;29616;51.950;8.572;2023-04-16T00:39:07;1097.72;;;456.17;;
7440;SDS011;29616;51.950;8.572;2023-04-16T00:41:36;1147.05;;;487.13;;
7440;SDS011;29616;51.950;8.572;2023-04-16T00:44:06;1002.78;;;450.20;;
7440;SDS011;29616;51.950;8.572;2023-04-16T00:46:36;984.80;;;443.02;;
7440;SDS011;29616;51.950;8.572;2023-04-16T00:49:04;1103.00;;;491.08;;
7440;SDS011;29616;51.950;8.572;2023-04-16T00:51:34;865.70;;;384.73;;
7440;SDS011;29616;51.950;8.572;2023-04-16T00:54:04;836.90;;;371.77;;
7440;SDS011;29616;51.950;8.572;2023-04-16T00:56:34;846.95;;;376.27;;
7440;SDS011;29616;51.950;8.572;2023-04-16T00:59:04;876.75;;;380.15;;
7440;SDS011;29616;51.950;8.572;2023-04-16T01:01:33;770.95;;;343.85;;
7440;SDS011;29616;51.950;8.572;2023-04-16T01:04:05;734.38;;;332.90;;
7440;SDS011;29616;51.950;8.572;2023-04-16T01:06:34;734.35;;;332.60;;
7440;SDS011;29616;51.950;8.572;2023-04-16T01:09:04;723.60;;;323.58;;
7440;SDS011;29616;51.950;8.572;2023-04-16T01:11:33;806.83;;;367.00;;
7440;SDS011;29616;51.950;8.572;2023-04-16T01:14:03;762.00;;;348.35;;
7440;SDS011;29616;51.950;8.572;2023-04-16T01:16:32;744.75;;;349.30;;
7440;SDS011;29616;51.950;8.572;2023-04-16T01:19:06;737.67;;;341.10;;
7440;SDS011;29616;51.950;8.572;2023-04-16T01:21:35;775.03;;;343.42;;
7440;SDS011;29616;51.950;8.572;2023-04-16T01:24:05;962.55;;;409.73;;
7440;SDS011;29616;51.950;8.572;2023-04-16T01:26:34;896.47;;;396.85;;
7440;SDS011;29616;51.950;8.572;2023-04-16T01:29:04;845.08;;;370.17;;
7440;SDS011;29616;51.950;8.572;2023-04-16T01:31:32;1026.13;;;434.77;;
7440;SDS011;29616;51.950;8.572;2023-04-16T01:34:24;787.35;;;352.50;;
7440;SDS011;29616;51.950;8.572;2023-04-16T01:36:53;875.75;;;382.05;;
7440;SDS011;29616;51.950;8.572;2023-04-16T01:39:22;823.63;;;358.92;;
7440;SDS011;29616;51.950;8.572;2023-04-16T01:41:52;892.42;;;369.15;;
7440;SDS011;29616;51.950;8.572;2023-04-16T01:44:21;950.22;;;403.25;;
7440;SDS011;29616;51.950;8.572;2023-04-16T01:46:49;902.47;;;393.13;;
7440;SDS011;29616;51.950;8.572;2023-04-16T01:49:20;969.83;;;411.58;;
7440;SDS011;29616;51.950;8.572;2023-04-16T01:51:48;934.58;;;401.35;;
7440;SDS011;29616;51.950;8.572;2023-04-16T01:54:19;894.45;;;393.13;;
7440;SDS011;29616;51.950;8.572;2023-04-16T01:56:47;1035.35;;;448.23;;
7440;SDS011;29616;51.950;8.572;2023-04-16T01:59:17;1161.93;;;465.45;;
7440;SDS011;29616;51.950;8.572;2023-04-16T02:01:45;1125.13;;;454.73;;
7440;SDS011;29616;51.950;8.572;2023-04-16T02:04:16;1246.38;;;489.83;;
7440;SDS011;29616;51.950;8.572;2023-04-16T02:06:45;1224.82;;;485.08;;
7440;SDS011;29616;51.950;8.572;2023-04-16T02:09:16;1187.95;;;462.40;;
7440;SDS011;29616;51.950;8.572;2023-04-16T02:11:46;1187.63;;;476.33;;
7440;SDS011;29616;51.950;8.572;2023-04-16T02:14:17;1024.10;;;428.80;;
7440;SDS011;29616;51.950;8.572;2023-04-16T02:16:46;1101.50;;;462.13;;
7440;SDS011;29616;51.950;8.572;2023-04-16T02:19:30;1233.20;;;499.95;;
7440;SDS011;29616;51.950;8.572;2023-04-16T02:21:58;1114.55;;;475.63;;
7440;SDS011;29616;51.950;8.572;2023-04-16T02:24:29;1218.35;;;519.63;;
7440;SDS011;29616;51.950;8.572;2023-04-16T02:27:03;1045.80;;;438.33;;
7440;SDS011;29616;51.950;8.572;2023-04-16T02:29:33;1072.80;;;441.13;;
7440;SDS011;29616;51.950;8.572;2023-04-16T02:32:14;1003.85;;;428.88;;
7440;SDS011;29616;51.950;8.572;2023-04-16T02:34:44;1001.95;;;435.45;;
7440;SDS011;29616;51.950;8.572;2023-04-16T02:37:15;919.28;;;394.27;;
7440;SDS011;29616;51.950;8.572;2023-04-16T02:39:44;951.50;;;406.67;;
7440;SDS011;29616;51.950;8.572;2023-04-16T02:42:16;1001.60;;;437.75;;
7440;SDS011;29616;51.950;8.572;2023-04-16T02:44:44;774.50;;;347.20;;
7440;SDS011;29616;51.950;8.572;2023-04-16T02:47:12;905.03;;;402.10;;
7440;SDS011;29616;51.950;8.572;2023-04-16T02:49:41;1011.92;;;426.33;;
7440;SDS011;29616;51.950;8.572;2023-04-16T02:52:12;1102.60;;;467.98;;
7440;SDS011;29616;51.950;8.572;2023-04-16T02:54:42;1068.38;;;435.77;;
7440;SDS011;29616;51.950;8.572;2023-04-16T02:57:13;1103.40;;;458.70;;
7440;SDS011;29616;51.950;8.572;2023-04-16T02:59:41;1022.53;;;422.77;;
7440;SDS011;29616;51.950;8.572;2023-04-16T03:02:10;1004.30;;;431.98;;
7440;SDS011;29616;51.950;8.572;2023-04-16T03:04:40;943.15;;;392.98;;
7440;SDS011;29616;51.950;8.572;2023-04-16T03:07:10;992.05;;;420.35;;
7440;SDS011;29616;51.950;8.572;2023-04-16T03:09:40;962.63;;;419.00;;
7440;SDS011;29616;51.950;8.572;2023-04-16T03:12:08;891.83;;;386.52;;
7440;SDS011;29616;51.950;8.572;2023-04-16T03:14:38;1023.75;;;426.45;;
7440;SDS011;29616;51.950;8.572;2023-04-16T03:17:08;998.55;;;425.60;;
7440;SDS011;29616;51.950;8.572;2023-04-16T03:19:36;837.63;;;364.90;;
7440;SDS011;29616;51.950;8.572;2023-04-16T03:22:06;1110.00;;;465.88;;
7440;SDS011;29616;51.950;8.572;2023-04-16T03:24:34;945.95;;;404.73;;
7440;SDS011;29616;51.950;8.572;2023-04-16T03:27:05;1015.05;;;430.77;;
7440;SDS011;29616;51.950;8.572;2023-04-16T03:29:35;777.95;;;331.67;;
7440;SDS011;29616;51.950;8.572;2023-04-16T03:32:08;916.10;;;391.52;;
7440;SDS011;29616;51.950;8.572;2023-04-16T03:34:37;937.47;;;389.15;;
7440;SDS011;29616;51.950;8.572;2023-04-16T03:37:06;961.15;;;399.45;;
7440;SDS011;29616;51.950;8.572;2023-04-16T03:39:39;862.05;;;362.38;;
7440;SDS011;29616;51.950;8.572;2023-04-16T03:42:10;906.05;;;373.35;;
7440;SDS011;29616;51.950;8.572;2023-04-16T03:44:38;769.88;;;331.83;;
7440;SDS011;29616;51.950;8.572;2023-04-16T03:47:08;863.03;;;366.30;;
7440;SDS011;29616;51.950;8.572;2023-04-16T03:49:38;945.25;;;406.70;;
7440;SDS011;29616;51.950;8.572;2023-04-16T03:52:07;901.88;;;392.33;;
7440;SDS011;29616;51.950;8.572;2023-04-16T03:54:38;1025.55;;;430.42;;
7440;SDS011;29616;51.950;8.572;2023-04-16T03:57:18;914.30;;;394.02;;
7440;SDS011;29616;51.950;8.572;2023-04-16T03:59:46;997.17;;;423.85;;
7440;SDS011;29616;51.950;8.572;2023-04-16T04:02:18;1206.18;;;493.48;;
7440;SDS011;29616;51.950;8.572;2023-04-16T04:04:47;1094.93;;;450.13;;
7440;SDS011;29616;51.950;8.572;2023-04-16T04:07:18;823.53;;;370.67;;
7440;SDS011;29616;51.950;8.572;2023-04-16T04:09:47;901.45;;;389.23;;
7440;SDS011;29616;51.950;8.572;2023-04-16T04:12:16;1014.35;;;426.38;;
7440;SDS011;29616;51.950;8.572;2023-04-16T04:14:45;1076.70;;;441.83;;
7440;SDS011;29616;51.950;8.572;2023-04-16T04:17:17;1082.50;;;447.85;;
7440;SDS011;29616;51.950;8.572;2023-04-16T04:19:45;1101.25;;;453.30;;
7440;SDS011;29616;51.950;8.572;2023-04-16T04:22:26;1087.45;;;451.42;;
7440;SDS011;29616;51.950;8.572;2023-04-16T04:24:55;1081.25;;;440.55;;
7440;SDS011;29616;51.950;8.572;2023-04-16T04:27:27;1101.72;;;451.75;;
7440;SDS011;29616;51.950;8.572;2023-04-16T04:29:56;1174.57;;;478.75;;
7440;SDS011;29616;51.950;8.572;2023-04-16T04:32:26;1134.43;;;465.77;;
7440;SDS011;29616;51.950;8.572;2023-04-16T04:34:54;1269.60;;;556.70;;
7440;SDS011;29616;51.950;8.572;2023-04-16T04:37:23;1187.07;;;475.48;;
7440;SDS011;29616;51.950;8.572;2023-04-16T04:39:51;1177.45;;;499.85;;
7440;SDS011;29616;51.950;8.572;2023-04-16T04:42:21;1068.93;;;513.67;;
7440;SDS011;29616;51.950;8.572;2023-04-16T04:44:53;945.47;;;418.30;;
7440;SDS011;29616;51.950;8.572;2023-04-16T04:47:22;846.83;;;370.25;;
7440;SDS011;29616;51.950;8.572;2023-04-16T04:49:53;842.70;;;383.65;;
7440;SDS011;29616;51.950;8.572;2023-04-16T04:52:23;588.80;;;270.42;;
7440;SDS011;29616;51.950;8.572;2023-04-16T04:54:53;562.50;;;259.30;;
7440;SDS011;29616;51.950;8.572;2023-04-16T04:57:21;583.83;;;268.52;;
7440;SDS011;29616;51.950;8.572;2023-04-16T04:59:52;534.35;;;246.70;;
7440;SDS011;29616;51.950;8.572;2023-04-16T05:02:21;492.83;;;226.18;;
7440;SDS011;29616;51.950;8.572;2023-04-16T05:04:50;463.75;;;216.18;;
7440;SDS011;29616;51.950;8.572;2023-04-16T05:07:22;491.60;;;236.80;;
7440;SDS011;29616;51.950;8.572;2023-04-16T05:09:52;531.25;;;238.90;;
7440;SDS011;29616;51.950;8.572;2023-04-16T05:12:22;563.83;;;261.23;;
7440;SDS011;29616;51.950;8.572;2023-04-16T05:14:50;702.17;;;308.30;;
7440;SDS011;29616;51.950;8.572;2023-04-16T05:17:19;892.60;;;388.15;;
7440;SDS011;29616;51.950;8.572;2023-04-16T05:19:48;903.13;;;382.70;;
7440;SDS011;29616;51.950;8.572;2023-04-16T05:22:17;978.60;;;418.75;;
7440;SDS011;29616;51.950;8.572;2023-04-16T05:24:49;814.03;;;353.23;;
7440;SDS011;29616;51.950;8.572;2023-04-16T05:27:17;757.97;;;334.70;;
7440;SDS011;29616;51.950;8.572;2023-04-16T05:29:45;549.97;;;265.65;;
7440;SDS011;29616;51.950;8.572;2023-04-16T05:32:14;732.20;;;318.25;;
7440;SDS011;29616;51.950;8.572;2023-04-16T05:34:45;689.97;;;307.67;;
7440;SDS011;29616;51.950;8.572;2023-04-16T05:37:13;732.20;;;321.27;;
7440;SDS011;29616;51.950;8.572;2023-04-16T05:39:42;678.22;;;305.88;;
7440;SDS011;29616;51.950;8.572;2023-04-16T05:42:13;670.80;;;309.58;;
7440;SDS011;29616;51.950;8.572;2023-04-16T05:44:42;743.72;;;331.17;;
7440;SDS011;29616;51.950;8.572;2023-04-16T05:47:11;841.92;;;369.05;;
7440;SDS011;29616;51.950;8.572;2023-04-16T05:49:40;743.58;;;341.50;;
7440;SDS011;29616;51.950;8.572;2023-04-16T05:52:09;770.50;;;356.83;;
7440;SDS011;29616;51.950;8.572;2023-04-16T05:54:40;827.47;;;373.38;;
7440;SDS011;29616;51.950;8.572;2023-04-16T05:57:08;877.88;;;403.23;;
7440;SDS011;29616;51.950;8.572;2023-04-16T05:59:39;748.13;;;336.63;;
7440;SDS011;29616;51.950;8.572;2023-04-16T06:02:08;876.53;;;375.58;;
7440;SDS011;29616;51.950;8.572;2023-04-16T06:04:39;686.88;;;313.08;;
7440;SDS011;29616;51.950;8.572;2023-04-16T06:07:08;636.13;;;292.27;;
7440;SDS011;29616;51.950;8.572;2023-04-16T06:09:39;649.47;;;300.67;;
7440;SDS011;29616;51.950;8.572;2023-04-16T06:12:08;687.00;;;317.38;;
7440;SDS011;29616;51.950;8.572;2023-04-16T06:14:39;752.85;;;344.25;;
7440;SDS011;29616;51.950;8.572;2023-04-16T06:17:07;841.03;;;357.48;;
7440;SDS011;29616;51.950;8.572;2023-04-16T06:19:35;725.30;;;333.67;;
7440;SDS011;29616;51.950;8.572;2023-04-16T06:22:05;880.00;;;372.90;;
7440;SDS011;29616;51.950;8.572;2023-04-16T06:24:33;699.05;;;325.15;;
7440;SDS011;29616;51.950;8.572;2023-04-16T06:27:03;673.65;;;311.42;;
7440;SDS011;29616;51.950;8.572;2023-04-16T06:29:31;736.35;;;337.27;;
7440;SDS011;29616;51.950;8.572;2023-04-16T06:32:08;781.53;;;345.20;;
7440;SDS011;29616;51.950;8.572;2023-04-16T06:34:39;804.00;;;353.55;;
7440;SDS011;29616;51.950;8.572;2023-04-16T06:37:08;792.08;;;347.10;;
7440;SDS011;29616;51.950;8.572;2023-04-16T06:39:37;788.55;;;349.05;;
7440;SDS011;29616;51.950;8.572;2023-04-16T06:42:07;735.88;;;330.23;;
7440;SDS011;29616;51.950;8.572;2023-04-16T06:44:37;793.95;;;356.52;;
7440;SDS011;29616;51.950;8.572;2023-04-16T06:47:06;823.53;;;364.92;;
7440;SDS011;29616;51.950;8.572;2023-04-16T06:49:38;857.63;;;371.40;;
7440;SDS011;29616;51.950;8.572;2023-04-16T06:52:08;1006.22;;;415.80;;
7440;SDS011;29616;51.950;8.572;2023-04-16T06:54:37;1060.38;;;441.80;;
7440;SDS011;29616;51.950;8.572;2023-04-16T06:57:07;994.10;;;435.38;;
7440;SDS011;29616;51.950;8.572;2023-04-16T06:59:36;1044.97;;;428.60;;
7440;SDS011;29616;51.950;8.572;2023-04-16T07:02:06;1051.97;;;449.75;;
7440;SDS011;29616;51.950;8.572;2023-04-16T07:04:38;925.35;;;394.30;;
7440;SDS011;29616;51.950;8.572;2023-04-16T07:07:07;958.25;;;411.27;;
7440;SDS011;29616;51.950;8.572;2023-04-16T07:09:37;1016.13;;;429.83;;
7440;SDS011;29616;51.950;8.572;2023-04-16T07:12:06;1064.35;;;444.88;;
7440;SDS011;29616;51.950;8.572;2023-04-16T07:14:35;1052.15;;;444.45;;
7440;SDS011;29616;51.950;8.572;2023-04-16T07:17:05;1229.45;;;489.05;;
7440;SDS011;29616;51.950;8.572;2023-04-16T07:19:35;1280.05;;;494.08;;
7440;SDS011;29616;51.950;8.572;2023-04-16T07:22:05;1001.90;;;405.92;;
7440;SDS011;29616;51.950;8.572;2023-04-16T07:24:33;929.13;;;385.00;;
7440;SDS011;29616;51.950;8.572;2023-04-16T07:27:03;997.55;;;405.52;;
7440;SDS011;29616;51.950;8.572;2023-04-16T07:29:32;863.97;;;359.85;;
7440;SDS011;29616;51.950;8.572;2023-04-16T07:32:00;1063.90;;;416.83;;
7440;SDS011;29616;51.950;8.572;2023-04-16T07:34:30;1401.68;;;623.33;;
7440;SDS011;29616;51.950;8.572;2023-04-16T07:37:00;1352.85;;;601.42;;
7440;SDS011;29616;51.950;8.572;2023-04-16T07:39:28;1361.22;;;562.75;;
7440;SDS011;29616;51.950;8.572;2023-04-16T07:49:26;1241.22;;;502.33;;
7440;SDS011;29616;51.950;8.572;2023-04-16T07:51:54;1116.10;;;422.60;;
7440;SDS011;29616;51.950;8.572;2023-04-16T07:54:25;1163.20;;;431.02;;
7440;SDS011;29616;51.950;8.572;2023-04-16T07:56:55;1446.82;;;631.42;;
7440;SDS011;29616;51.950;8.572;2023-04-16T07:59:26;1189.45;;;478.75;;
7440;SDS011;29616;51.950;8.572;2023-04-16T08:04:24;1138.40;;;459.70;;
7440;SDS011;29616;51.950;8.572;2023-04-16T08:09:25;1181.40;;;482.63;;
7440;SDS011;29616;51.950;8.572;2023-04-16T08:11:54;1265.63;;;493.92;;
7440;SDS011;29616;51.950;8.572;2023-04-16T08:14:23;888.75;;;294.10;;
7440;SDS011;29616;51.950;8.572;2023-04-16T08:16:52;1168.03;;;453.83;;
7440;SDS011;29616;51.950;8.572;2023-04-16T08:19:22;1268.05;;;468.48;;
7440;SDS011;29616;51.950;8.572;2023-04-16T08:21:50;1253.93;;;475.10;;
7440;SDS011;29616;51.950;8.572;2023-04-16T08:24:20;1352.35;;;500.42;;
7440;SDS011;29616;51.950;8.572;2023-04-16T08:26:50;1285.15;;;498.58;;
7440;SDS011;29616;51.950;8.572;2023-04-16T08:29:18;1342.35;;;484.63;;
7440;SDS011;29616;51.950;8.572;2023-04-16T08:31:47;1322.97;;;477.48;;
7440;SDS011;29616;51.950;8.572;2023-04-16T08:36:44;1326.97;;;463.23;;
7440;SDS011;29616;51.950;8.572;2023-04-16T08:39:12;869.88;;;334.50;;
7440;SDS011;29616;51.950;8.572;2023-04-16T08:41:42;1202.47;;;426.40;;
7440;SDS011;29616;51.950;8.572;2023-04-16T08:44:19;1065.82;;;402.90;;
7440;SDS011;29616;51.950;8.572;2023-04-16T08:46:53;953.92;;;362.52;;
7440;SDS011;29616;51.950;8.572;2023-04-16T08:49:24;1084.97;;;409.27;;
7440;SDS011;29616;51.950;8.572;2023-04-16T08:51:54;1072.32;;;410.75;;
7440;SDS011;29616;51.950;8.572;2023-04-16T08:54:30;966.53;;;365.65;;
7440;SDS011;29616;51.950;8.572;2023-04-16T08:57:05;1006.53;;;389.90;;
7440;SDS011;29616;51.950;8.572;2023-04-16T08:59:39;960.00;;;365.13;;
7440;SDS011;29616;51.950;8.572;2023-04-16T09:02:12;932.22;;;347.88;;
7440;SDS011;29616;51.950;8.572;2023-04-16T09:04:42;850.88;;;325.70;;
7440;SDS011;29616;51.950;8.572;2023-04-16T09:07:11;894.80;;;344.88;;
7440;SDS011;29616;51.950;8.572;2023-04-16T09:09:42;984.35;;;365.42;;
7440;SDS011;29616;51.950;8.572;2023-04-16T09:12:13;1024.00;;;388.27;;
7440;SDS011;29616;51.950;8.572;2023-04-16T09:14:47;1174.68;;;448.23;;
7440;SDS011;29616;51.950;8.572;2023-04-16T09:17:17;1120.32;;;429.05;;
7440;SDS011;29616;51.950;8.572;2023-04-16T09:19:48;1044.22;;;400.25;;
7440;SDS011;29616;51.950;8.572;2023-04-16T09:22:16;1057.90;;;392.17;;
7440;SDS011;29616;51.950;8.572;2023-04-16T09:24:46;1062.00;;;402.92;;
7440;SDS011;29616;51.950;8.572;2023-04-16T09:27:14;1177.90;;;458.15;;
7440;SDS011;29616;51.950;8.572;2023-04-16T09:29:44;1115.35;;;439.17;;
7440;SDS011;29616;51.950;8.572;2023-04-16T09:32:15;1068.00;;;428.33;;
7440;SDS011;29616;51.950;8.572;2023-04-16T09:34:55;970.35;;;392.27;;
7440;SDS011;29616;51.950;8.572;2023-04-16T09:37:25;1059.45;;;418.90;;
7440;SDS011;29616;51.950;8.572;2023-04-16T09:39:56;1098.20;;;445.33;;
7440;SDS011;29616;51.950;8.572;2023-04-16T09:42:26;1132.63;;;452.30;;
7440;SDS011;29616;51.950;8.572;2023-04-16T09:44:59;946.47;;;363.30;;
7440;SDS011;29616;51.950;8.572;2023-04-16T09:47:39;1013.65;;;399.88;;
7440;SDS011;29616;51.950;8.572;2023-04-16T09:50:13;1043.53;;;403.75;;
7440;SDS011;29616;51.950;8.572;2023-04-16T09:52:44;1027.45;;;392.90;;
7440;SDS011;29616;51.950;8.572;2023-04-16T09:55:21;1207.20;;;454.90;;
7440;SDS011;29616;51.950;8.572;2023-04-16T09:57:57;1331.45;;;484.02;;
7440;SDS011;29616;51.950;8.572;2023-04-16T10:00:29;1343.28;;;507.23;;
7440;SDS011;29616;51.950;8.572;2023-04-16T10:03:02;1145.68;;;428.05;;
7440;SDS011;29616;51.950;8.572;2023-04-16T10:05:33;969.40;;;373.98;;
7440;SDS011;29616;51.950;8.572;2023-04-16T10:08:09;912.35;;;349.65;;
7440;SDS011;29616;51.950;8.572;2023-04-16T10:10:41;969.50;;;351.90;;
7440;SDS011;29616;51.950;8.572;2023-04-16T10:13:09;1175.18;;;441.80;;
7440;SDS011;29616;51.950;8.572;2023-04-16T10:15:44;1373.47;;;476.42;;
7440;SDS011;29616;51.950;8.572;2023-04-16T10:18:12;1466.90;;;524.65;;
7440;SDS011;29616;51.950;8.572;2023-04-16T10:20:44;1366.35;;;516.50;;
7440;SDS011;29616;51.950;8.572;2023-04-16T10:23:12;1539.40;;;549.35;;
7440;SDS011;29616;51.950;8.572;2023-04-16T10:25:43;1474.60;;;527.33;;
7440;SDS011;29616;51.950;8.572;2023-04-16T10:28:12;1535.93;;;549.67;;
7440;SDS011;29616;51.950;8.572;2023-04-16T10:30:46;1491.65;;;645.25;;
7440;SDS011;29616;51.950;8.572;2023-04-16T10:33:19;1599.57;;;582.15;;
7440;SDS011;29616;51.950;8.572;2023-04-16T10:35:51;1625.30;;;671.53;;
7440;SDS011;29616;51.950;8.572;2023-04-16T10:38:37;1493.18;;;536.22;;
7440;SDS011;29616;51.950;8.572;2023-04-16T10:41:09;1571.55;;;606.88;;
7440;SDS011;29616;51.950;8.572;2023-04-16T10:43:42;1354.15;;;507.20;;
7440;SDS011;29616;51.950;8.572;2023-04-16T10:46:17;1362.05;;;513.13;;
7440;SDS011;29616;51.950;8.572;2023-04-16T10:48:48;1118.60;;;440.27;;
7440;SDS011;29616;51.950;8.572;2023-04-16T10:51:26;993.17;;;370.00;;
7440;SDS011;29616;51.950;8.572;2023-04-16T10:53:57;897.90;;;345.20;;
7440;SDS011;29616;51.950;8.572;2023-04-16T10:56:31;1045.15;;;387.38;;
7440;SDS011;29616;51.950;8.572;2023-04-16T10:59:03;1120.45;;;451.05;;
7440;SDS011;29616;51.950;8.572;2023-04-16T11:01:35;901.67;;;337.92;;
7440;SDS011;29616;51.950;8.572;2023-04-16T11:04:25;1277.10;;;537.30;;
7440;SDS011;29616;51.950;8.572;2023-04-16T11:07:05;845.75;;;328.63;;
7440;SDS011;29616;51.950;8.572;2023-04-16T11:09:51;987.90;;;368.92;;
7440;SDS011;29616;51.950;8.572;2023-04-16T11:12:23;1040.80;;;397.33;;
7440;SDS011;29616;51.950;8.572;2023-04-16T11:14:57;995.85;;;388.95;;
7440;SDS011;29616;51.950;8.572;2023-04-16T11:17:32;1045.13;;;410.02;;
7440;SDS011;29616;51.950;8.572;2023-04-16T11:20:06;1127.20;;;442.35;;
7440;SDS011;29616;51.950;8.572;2023-04-16T11:22:46;1148.50;;;440.45;;
7440;SDS011;29616;51.950;8.572;2023-04-16T11:25:18;1112.93;;;440.95;;
7440;SDS011;29616;51.950;8.572;2023-04-16T11:27:48;1011.28;;;394.02;;
7440;SDS011;29616;51.950;8.572;2023-04-16T11:30:27;1115.72;;;430.15;;
7440;SDS011;29616;51.950;8.572;2023-04-16T11:32:57;1209.25;;;458.95;;
7440;SDS011;29616;51.950;8.572;2023-04-16T11:35:27;1315.25;;;493.33;;
7440;SDS011;29616;51.950;8.572;2023-04-16T11:37:56;1326.28;;;499.67;;
7440;SDS011;29616;51.950;8.572;2023-04-16T11:40:28;1379.57;;;539.03;;
7440;SDS011;29616;51.950;8.572;2023-04-16T11:42:59;1471.93;;;615.97;;
7440;SDS011;29616;51.950;8.572;2023-04-16T11:45:29;1497.45;;;629.47;;
7440;SDS011;29616;51.950;8.572;2023-04-16T11:47:59;1400.07;;;517.38;;
7440;SDS011;29616;51.950;8.572;2023-04-16T11:50:28;1421.25;;;532.30;;
7440;SDS011;29616;51.950;8.572;2023-04-16T11:53:02;1430.13;;;562.42;;
7440;SDS011;29616;51.950;8.572;2023-04-16T11:55:33;1279.82;;;447.23;;
7440;SDS011;29616;51.950;8.572;2023-04-16T11:58:10;1304.40;;;450.30;;
7440;SDS011;29616;51.950;8.572;2023-04-16T12:00:42;1417.47;;;493.67;;
7440;SDS011;29616;51.950;8.572;2023-04-16T12:03:11;1462.05;;;578.05;;
7440;SDS011;29616;51.950;8.572;2023-04-16T12:05:43;1437.20;;;545.95;;
7440;SDS011;29616;51.950;8.572;2023-04-16T12:08:11;1587.05;;;667.53;;
7440;SDS011;29616;51.950;8.572;2023-04-16T12:10:51;1616.65;;;710.72;;
7440;SDS011;29616;51.950;8.572;2023-04-16T12:15:51;1453.13;;;571.88;;
7440;SDS011;29616;51.950;8.572;2023-04-16T12:18:24;1251.53;;;472.40;;
7440;SDS011;29616;51.950;8.572;2023-04-16T12:20:55;1300.30;;;487.60;;
7440;SDS011;29616;51.950;8.572;2023-04-16T12:23:26;1334.38;;;506.60;;
7440;SDS011;29616;51.950;8.572;2023-04-16T12:25:58;1219.88;;;476.98;;
7440;SDS011;29616;51.950;8.572;2023-04-16T12:28:37;1326.88;;;508.42;;
7440;SDS011;29616;51.950;8.572;2023-04-16T12:31:07;1353.88;;;540.40;;
7440;SDS011;29616;51.950;8.572;2023-04-16T12:33:38;1186.00;;;475.00;;
7440;SDS011;29616;51.950;8.572;2023-04-16T12:36:16;1023.17;;;414.98;;
7440;SDS011;29616;51.950;8.572;2023-04-16T12:38:47;1024.38;;;421.80;;
7440;SDS011;29616;51.950;8.572;2023-04-16T12:41:16;975.00;;;386.58;;
7440;SDS011;29616;51.950;8.572;2023-04-16T12:43:44;1118.30;;;442.05;;
7440;SDS011;29616;51.950;8.572;2023-04-16T12:46:12;1172.15;;;460.75;;
7440;SDS011;29616;51.950;8.572;2023-04-16T12:48:43;1103.68;;;472.58;;
7440;SDS011;29616;51.950;8.572;2023-04-16T12:51:12;1034.68;;;426.08;;
7440;SDS011;29616;51.950;8.572;2023-04-16T12:53:40;1020.25;;;430.55;;
7440;SDS011;29616;51.950;8.572;2023-04-16T12:56:09;1016.35;;;425.50;;
7440;SDS011;29616;51.950;8.572;2023-04-16T12:58:38;1063.38;;;443.25;;
7440;SDS011;29616;51.950;8.572;2023-04-16T13:01:09;1143.45;;;486.02;;
7440;SDS011;29616;51.950;8.572;2023-04-16T13:03:38;1067.30;;;451.08;;
7440;SDS011;29616;51.950;8.572;2023-04-16T13:06:07;869.42;;;357.17;;
7440;SDS011;29616;51.950;8.572;2023-04-16T13:08:36;1080.65;;;452.95;;
7440;SDS011;29616;51.950;8.572;2023-04-16T13:11:05;855.88;;;355.17;;
7440;SDS011;29616;51.950;8.572;2023-04-16T13:13:34;1017.22;;;427.63;;
7440;SDS011;29616;51.950;8.572;2023-04-16T13:16:02;1014.17;;;417.70;;
7440;SDS011;29616;51.950;8.572;2023-04-16T13:18:33;1032.43;;;429.48;;
7440;SDS011;29616;51.950;8.572;2023-04-16T13:21:04;1067.20;;;450.75;;
7440;SDS011;29616;51.950;8.572;2023-04-16T13:23:35;935.40;;;394.10;;
7440;SDS011;29616;51.950;8.572;2023-04-16T13:26:06;1033.07;;;433.90;;
7440;SDS011;29616;51.950;8.572;2023-04-16T13:28:34;813.83;;;330.17;;
7440;SDS011;29616;51.950;8.572;2023-04-16T13:31:04;726.85;;;297.77;;
7440;SDS011;29616;51.950;8.572;2023-04-16T13:33:32;1027.47;;;429.45;;
7440;SDS011;29616;51.950;8.572;2023-04-16T13:36:02;1076.38;;;434.77;;
7440;SDS011;29616;51.950;8.572;2023-04-16T13:38:30;1106.82;;;458.10;;
7440;SDS011;29616;51.950;8.572;2023-04-16T13:41:01;1113.75;;;467.00;;
7440;SDS011;29616;51.950;8.572;2023-04-16T13:43:29;1104.28;;;466.00;;
7440;SDS011;29616;51.950;8.572;2023-04-16T13:45:59;1085.55;;;454.23;;
7440;SDS011;29616;51.950;8.572;2023-04-16T13:48:28;1165.07;;;505.25;;
7440;SDS011;29616;51.950;8.572;2023-04-16T13:50:56;1169.88;;;495.75;;
7440;SDS011;29616;51.950;8.572;2023-04-16T13:53:24;1033.95;;;422.02;;
7440;SDS011;29616;51.950;8.572;2023-04-16T13:55:53;1083.32;;;440.73;;
7440;SDS011;29616;51.950;8.572;2023-04-16T13:58:23;1021.72;;;412.73;;
7440;SDS011;29616;51.950;8.572;2023-04-16T14:00:52;997.42;;;407.67;;
7440;SDS011;29616;51.950;8.572;2023-04-16T14:03:23;691.65;;;289.40;;
7440;SDS011;29616;51.950;8.572;2023-04-16T14:05:54;668.17;;;281.02;;
7440;SDS011;29616;51.950;8.572;2023-04-16T14:08:24;805.72;;;330.52;;
7440;SDS011;29616;51.950;8.572;2023-04-16T14:10:54;671.20;;;280.80;;
7440;SDS011;29616;51.950;8.572;2023-04-16T14:13:25;855.15;;;342.83;;
7440;SDS011;29616;51.950;8.572;2023-04-16T14:15:56;650.72;;;276.27;;
7440;SDS011;29616;51.950;8.572;2023-04-16T14:18:24;659.05;;;274.73;;
7440;SDS011;29616;51.950;8.572;2023-04-16T14:20:52;626.70;;;264.55;;
7440;SDS011;29616;51.950;8.572;2023-04-16T14:23:21;1008.20;;;407.42;;
7440;SDS011;29616;51.950;8.572;2023-04-16T14:25:51;570.47;;;243.10;;
7440;SDS011;29616;51.950;8.572;2023-04-16T14:28:20;552.63;;;233.73;;
7440;SDS011;29616;51.950;8.572;2023-04-16T14:30:51;581.55;;;248.00;;
7440;SDS011;29616;51.950;8.572;2023-04-16T14:33:20;606.08;;;257.13;;
7440;SDS011;29616;51.950;8.572;2023-04-16T14:35:49;581.08;;;241.70;;
7440;SDS011;29616;51.950;8.572;2023-04-16T14:38:17;633.85;;;270.63;;
7440;SDS011;29616;51.950;8.572;2023-04-16T14:40:47;758.60;;;310.40;;
7440;SDS011;29616;51.950;8.572;2023-04-16T14:43:16;713.03;;;295.27;;
7440;SDS011;29616;51.950;8.572;2023-04-16T14:45:44;882.08;;;356.27;;